Coosawatchie, South Carolina
Current Conditions -  °F | °C
As of 12:56 PM on Saturday 22 Nov 2014 (Local Time) from KNBC Reporting Station
Clear Clear  
Wind Chill: 62°   Ceiling: Unl
Heat Index: 62°   Visibility: 10mi
Dew Point: 45°   Wind: 7mph
Humidity: 53%   Direction: 60°ENE
Pressure: 30.44"   Gusts: 17mph
Location:  32.59°N, 80.93°W
Report Text: KNBC 221656Z AUTO 06006G15KT 10SM CLR 17/07 A3044 RMK AO2 SLP310 T01670072 $
Loading
Personal Weather Stations






























Interactive Weather Map New forecast layout! Learn more

10-Day Weather Forecast

Advertisements
Track Severe Weather on mobile